Rye, New Hampshire
Current Conditions -  °F | °C
As of 3:22 PM on Thursday 23 Oct 2014 (Local Time) from KPSM Reporting Station
Overcast Overcast  
Wind Chill: 52°   Ceiling: 900
Heat Index: 52°   Visibility: 7mi
Dew Point: 50°   Wind: 16mph
Humidity: 94%   Direction: 10°N
Pressure: 29.66"   Gusts: 25mph
Location:  43.01°N, 70.77°W
Report Text: KPSM 231922Z 01014G22KT 7SM BKN009 OVC012 11/10 A2966 RMK AO2A
Loading
Personal Weather Stations






























Interactive Weather Map
Tropical Storm Tracking
New forecast layout! Learn more

10-Day Weather Forecast

Advertisements
Track Severe Weather on mobile